Time;durP1;ratioP1;P1;durP2;ratioP2;P2;SDS_P1;SDS_P2;PMS_P1;PMS_P2;Temp;Humidity;BMP_temperature;BMP_pressure;BME280_temperature;BME280_humidity;BME280_pressure;Samples;Min_cycle;Max_cycle;Signal;HPM_P1;HPM_P2
2022/08/09 00:00:12;;;;;;;5.97;3.25;;;;;;;19.04;53.27;101867.66;5016647;28;20046;-74
2022/08/09 00:02:40;;;;;;;4.93;2.50;;;;;;;19.04;53.16;101870.31;5006011;28;20049;-73
2022/08/09 00:05:17;;;;;;;4.00;3.05;;;;;;;19.07;53.18;101869.25;5033191;28;20079;-73
2022/08/09 00:08:06;;;;;;;5.72;3.00;;;;;;;19.06;53.28;101872.88;5016641;28;20057;-73
2022/08/09 00:10:39;;;;;;;4.88;3.05;;;;;;;19.06;52.95;101868.41;5016774;28;20432;-74
2022/08/09 00:13:08;;;;;;;4.25;2.70;;;;;;;19.07;53.05;101874.59;5032289;28;20133;-74
2022/08/09 00:15:45;;;;;;;3.67;2.65;;;;;;;19.07;53.28;101870.09;5012336;28;20067;-73
2022/08/09 00:18:26;;;;;;;7.18;3.08;;;;;;;19.10;53.17;101874.38;5016084;28;20511;-73
2022/08/09 00:20:54;;;;;;;4.80;2.78;;;;;;;19.09;53.28;101867.31;5026511;28;20053;-74
2022/08/09 00:23:22;;;;;;;3.60;2.80;;;;;;;19.10;52.91;101867.22;5036366;28;20049;-73
2022/08/09 00:26:09;;;;;;;5.68;2.95;;;;;;;19.12;53.00;101870.59;5004129;28;20042;-73
2022/08/09 00:28:38;;;;;;;6.28;2.83;;;;;;;19.14;53.31;101874.03;5048579;28;20049;-73
2022/08/09 00:31:05;;;;;;;6.10;3.10;;;;;;;19.14;53.37;101866.00;5026223;28;20049;-74
2022/08/09 00:33:53;;;;;;;5.22;3.05;;;;;;;19.17;53.06;101867.59;5032128;28;20527;-73
2022/08/09 00:36:22;;;;;;;3.85;2.70;;;;;;;19.17;52.99;101867.59;5015235;28;20037;-73
2022/08/09 00:38:57;;;;;;;5.75;2.80;;;;;;;19.15;53.03;101864.19;5011169;28;20053;-73
2022/08/09 00:41:24;;;;;;;3.70;2.88;;;;;;;19.17;53.25;101867.59;5042050;28;20041;-73
2022/08/09 00:44:11;;;;;;;9.88;2.83;;;;;;;19.17;53.46;101859.56;5024619;28;20054;-73
2022/08/09 00:46:54;;;;;;;7.38;3.50;;;;;;;19.18;53.45;101863.94;5010281;28;20507;-74
2022/08/09 00:49:33;;;;;;;6.82;3.05;;;;;;;19.18;53.41;101859.47;5020868;28;20056;-73
2022/08/09 00:52:04;;;;;;;7.25;3.22;;;;;;;19.19;53.46;101865.66;5032466;28;20070;-73
2022/08/09 00:54:42;;;;;;;4.53;3.05;;;;;;;19.19;53.46;101863.84;5029533;28;20045;-73
2022/08/09 00:57:11;;;;;;;5.45;3.17;;;;;;;19.20;53.65;101867.34;5026030;28;20387;-72
2022/08/09 00:59:41;;;;;;;4.07;2.90;;;;;;;19.19;53.63;101866.50;5031817;28;20499;-74
2022/08/09 01:02:24;;;;;;;7.47;3.00;;;;;;;19.19;53.86;101865.66;5021987;28;20065;-73
2022/08/09 01:05:07;;;;;;;4.28;3.00;;;;;;;19.18;54.21;101867.50;5040083;28;20079;-73
2022/08/09 01:07:52;;;;;;;4.57;2.75;;;;;;;19.17;54.16;101863.09;5019161;28;20104;-73
2022/08/09 01:10:33;;;;;;;9.77;3.22;;;;;;;19.16;54.11;101860.53;5034809;28;20156;-74
2022/08/09 01:13:09;;;;;;;5.95;3.13;;;;;;;19.14;54.03;101860.69;5036993;28;20056;-73
2022/08/09 01:15:43;;;;;;;4.88;2.97;;;;;;;19.15;54.50;101864.19;5020025;28;20069;-74
2022/08/09 01:18:26;;;;;;;8.57;3.20;;;;;;;19.12;54.65;101862.59;5019237;28;20045;-74
2022/08/09 01:21:30;;;;;;;5.75;2.65;;;;;;;19.10;54.72;101863.69;5028416;28;20053;-74
2022/08/09 01:24:22;;;;;;;7.97;3.15;;;;;;;19.10;55.00;101867.22;5030523;28;20042;-74
2022/08/09 01:27:05;;;;;;;7.40;3.28;;;;;;;19.09;54.32;101864.63;5023546;28;20160;-74
2022/08/09 01:29:43;;;;;;;5.22;2.97;;;;;;;19.07;54.45;101862.09;5016874;28;20578;-74
2022/08/09 01:32:35;;;;;;;5.53;3.00;;;;;;;19.08;54.41;101862.94;5032824;28;20049;-74
2022/08/09 01:35:07;;;;;;;9.88;3.65;;;;;;;19.08;54.39;101857.59;5008655;28;20052;-74
2022/08/09 01:37:57;;;;;;;5.15;2.75;;;;;;;19.07;54.72;101861.25;5002319;28;20525;-74
2022/08/09 01:40:41;;;;;;;4.53;2.67;;;;;;;19.05;55.00;101861.38;5010855;28;20041;-74
2022/08/09 01:43:10;;;;;;;4.68;2.92;;;;;;;19.03;55.29;101867.78;5011012;28;20054;-74
2022/08/09 01:45:39;;;;;;;6.80;3.15;;;;;;;18.98;55.41;101863.63;5012196;28;20052;-74
2022/08/09 01:48:15;;;;;;;3.92;2.88;;;;;;;18.95;55.17;101863.84;5032517;28;20563;-74
2022/08/09 01:50:47;;;;;;;3.17;2.67;;;;;;;18.93;55.47;101867.63;5018456;28;20052;-74
2022/08/09 01:53:24;;;;;;;4.53;3.08;;;;;;;18.92;55.31;101869.44;5015109;28;20136;-74
2022/08/09 01:56:07;;;;;;;4.07;3.15;;;;;;;18.90;55.19;101868.69;5010236;28;20060;-74
2022/08/09 01:58:35;;;;;;;4.43;2.92;;;;;;;18.88;55.37;101872.44;5031460;28;20452;-74
2022/08/09 02:01:04;;;;;;;5.65;2.92;;;;;;;18.87;55.26;101870.75;5010440;28;20052;-74
2022/08/09 02:03:34;;;;;;;6.10;3.28;;;;;;;18.86;55.45;101869.88;5020443;28;20051;-74
2022/08/09 02:06:03;;;;;;;5.72;3.33;;;;;;;18.86;55.38;101869.03;5014384;28;20075;-74
2022/08/09 02:08:35;;;;;;;10.48;3.55;;;;;;;18.85;55.70;101862.84;5019443;28;20522;-74
2022/08/09 02:11:25;;;;;;;6.55;2.80;;;;;;;18.85;55.36;101870.00;5004822;28;20462;-74
2022/08/09 02:14:11;;;;;;;4.63;2.80;;;;;;;18.85;55.53;101864.66;5015804;28;20041;-74
2022/08/09 02:16:53;;;;;;;4.22;3.22;;;;;;;18.84;55.45;101869.16;5037927;28;20045;-74
2022/08/09 02:19:40;;;;;;;6.10;2.97;;;;;;;18.85;55.56;101870.00;5024453;28;20095;-74
2022/08/09 02:22:17;;;;;;;4.47;2.80;;;;;;;18.84;55.47;101860.28;5029117;28;20037;-74
2022/08/09 02:24:56;;;;;;;3.80;3.03;;;;;;;18.84;56.06;101863.81;5016696;28;20072;-74
2022/08/09 02:27:28;;;;;;;6.65;3.03;;;;;;;18.82;55.90;101872.88;4996975;28;20042;-73
2022/08/09 02:30:15;;;;;;;5.68;2.80;;;;;;;18.83;56.19;101874.59;5034665;28;20049;-74
2022/08/09 02:32:46;;;;;;;5.60;2.75;;;;;;;18.79;56.13;101876.63;5004891;28;20525;-73
2022/08/09 02:35:22;;;;;;;4.72;3.28;;;;;;;18.79;56.19;101873.97;5006193;28;20046;-74
2022/08/09 02:38:10;;;;;;;5.88;2.92;;;;;;;18.77;56.15;101875.88;5013889;28;20183;-73
2022/08/09 02:40:48;;;;;;;5.47;2.90;;;;;;;18.79;56.45;101870.47;5015659;28;20228;-73
2022/08/09 02:43:19;;;;;;;6.57;3.13;;;;;;;18.77;56.48;101875.03;4996771;28;20392;-73
2022/08/09 02:45:48;;;;;;;8.55;2.97;;;;;;;18.75;57.02;101882.31;5010820;28;20066;-73
2022/08/09 02:48:15;;;;;;;5.50;3.13;;;;;;;18.74;56.69;101876.13;5028419;28;20056;-73
2022/08/09 02:50:59;;;;;;;6.40;3.40;;;;;;;18.74;56.72;101878.81;5038577;28;20116;-74
2022/08/09 02:53:34;;;;;;;5.35;2.92;;;;;;;18.72;56.74;101875.38;5002107;28;20049;-73
2022/08/09 02:56:02;;;;;;;3.95;3.25;;;;;;;18.73;56.81;101885.06;5015644;28;20042;-73
2022/08/09 02:58:31;;;;;;;6.28;3.22;;;;;;;18.72;56.71;101878.03;5033028;28;20056;-73
2022/08/09 03:01:07;;;;;;;6.20;3.30;;;;;;;18.71;56.75;101874.53;5011343;28;20759;-73
2022/08/09 03:03:42;;;;;;;5.97;3.22;;;;;;;18.70;56.73;101875.50;5017444;28;20052;-73
2022/08/09 03:06:29;;;;;;;4.68;2.80;;;;;;;18.69;56.85;101873.81;5016795;28;20049;-73
2022/08/09 03:08:56;;;;;;;5.00;3.13;;;;;;;18.71;56.75;101879.88;5030954;28;20056;-73
2022/08/09 03:11:24;;;;;;;4.97;3.28;;;;;;;18.71;57.01;101882.53;4998475;28;20046;-73
2022/08/09 03:14:11;;;;;;;5.43;3.35;;;;;;;18.69;57.41;101884.47;5029278;28;20054;-73
2022/08/09 03:16:39;;;;;;;3.38;2.90;;;;;;;18.66;57.29;101884.66;5060746;28;20055;-73
2022/08/09 03:19:18;;;;;;;4.30;3.15;;;;;;;18.66;57.58;101887.31;5018559;28;20048;-74
2022/08/09 03:22:07;;;;;;;4.20;3.20;;;;;;;18.65;57.60;101884.78;5020445;28;20153;-73
2022/08/09 03:24:51;;;;;;;7.10;3.47;;;;;;;18.61;57.40;101888.63;5033595;28;20523;-74
2022/08/09 03:27:41;;;;;;;5.07;3.75;;;;;;;18.57;57.67;101882.66;5017938;28;20080;-74
2022/08/09 03:30:15;;;;;;;4.95;3.40;;;;;;;18.56;57.75;101883.63;5015469;22;20389;-58
2022/08/09 03:33:00;;;;;;;6.75;3.45;;;;;;;18.56;57.88;101885.44;5000282;28;20057;-59
2022/08/09 03:35:31;;;;;;;4.30;3.35;;;;;;;18.57;57.71;101887.16;5010831;28;20053;-61
2022/08/09 03:38:18;;;;;;;5.35;2.95;;;;;;;18.55;58.09;101892.59;4997489;28;20446;-56
2022/08/09 03:40:56;;;;;;;8.45;3.60;;;;;;;18.55;58.07;101881.94;5008161;28;20057;-59
2022/08/09 03:43:26;;;;;;;7.88;3.72;;;;;;;18.54;58.05;101884.69;5016681;28;20049;-56
2022/08/09 03:45:59;;;;;;;6.45;4.07;;;;;;;18.53;58.16;101891.84;5011811;28;20054;-55
2022/08/09 03:48:52;;;;;;;10.02;4.07;;;;;;;18.54;58.21;101898.03;5013075;28;20063;-57
2022/08/09 03:51:25;;;;;;;7.32;3.92;;;;;;;18.55;58.34;101894.38;5015363;28;20406;-59
2022/08/09 03:54:13;;;;;;;6.10;3.90;;;;;;;18.57;58.25;101889.81;4991249;28;20041;-53
2022/08/09 03:56:40;;;;;;;7.88;3.83;;;;;;;18.58;58.35;101891.50;5009016;28;20058;-54
2022/08/09 03:59:08;;;;;;;5.28;3.15;;;;;;;18.59;58.11;101890.53;5008421;28;20508;-57
2022/08/09 04:01:43;;;;;;;;;;;;;;;18.60;58.29;101894.94;4997184;28;20045;-57
2022/08/09 04:04:12;;;;;;;6.35;3.55;;;;;;;18.61;58.44;101894.81;4993875;28;19933;-60
2022/08/09 04:06:41;;;;;;;7.47;3.55;;;;;;;18.63;58.19;101902.69;4996483;28;20075;-59
2022/08/09 04:09:15;;;;;;;11.23;3.22;;;;;;;18.64;58.71;101899.06;5003240;28;20058;-60
2022/08/09 04:12:08;;;;;;;7.25;3.28;;;;;;;18.64;58.44;101899.06;5015036;28;20053;-59
2022/08/09 04:14:55;;;;;;;4.57;3.25;;;;;;;18.65;58.26;101901.63;5001107;28;20065;-61
2022/08/09 04:17:38;;;;;;;6.00;3.40;;;;;;;18.68;58.59;101906.72;5013570;28;20383;-59
2022/08/09 04:20:11;;;;;;;8.35;3.22;;;;;;;18.69;58.82;101902.28;5007193;28;20058;-58
2022/08/09 04:22:39;;;;;;;5.85;3.47;;;;;;;18.69;59.18;101915.63;5011497;28;20152;-59
2022/08/09 04:25:11;;;;;;;5.32;3.28;;;;;;;18.67;58.97;101923.69;5005624;28;20061;-58
2022/08/09 04:27:42;;;;;;;11.20;3.83;;;;;;;18.68;58.91;101917.38;5007829;28;20562;-60
2022/08/09 04:30:18;;;;;;;5.38;3.63;;;;;;;18.70;58.95;101922.66;5014868;28;20053;-58
2022/08/09 04:32:49;;;;;;;11.48;3.80;;;;;;;18.72;58.79;101924.25;5014898;28;20100;-55
2022/08/09 04:35:17;;;;;;;5.38;3.88;;;;;;;18.78;58.53;101922.97;5007476;28;20041;-57
2022/08/09 04:37:48;;;;;;;18.45;5.13;;;;;;;18.80;58.90;101921.03;5012401;28;20053;-58
2022/08/09 04:40:16;;;;;;;8.20;3.90;;;;;;;18.83;59.02;101917.28;4998944;28;20553;-58
2022/08/09 04:42:46;;;;;;;5.68;3.53;;;;;;;18.86;58.86;101925.91;5016267;28;20061;-60
2022/08/09 04:45:15;;;;;;;6.75;3.85;;;;;;;18.89;59.02;101924.84;5002168;28;20052;-59
2022/08/09 04:47:46;;;;;;;10.68;3.80;;;;;;;18.92;58.59;101932.63;5012170;28;20046;-58
2022/08/09 04:50:28;;;;;;;8.57;3.72;;;;;;;18.96;58.92;101928.78;5003388;28;20050;-61
2022/08/09 04:53:00;;;;;;;8.52;3.92;;;;;;;18.96;58.76;101939.44;5011112;28;20467;-57
2022/08/09 04:55:28;;;;;;;16.63;4.50;;;;;;;18.95;58.83;101938.56;5012698;28;20398;-57
2022/08/09 04:58:06;;;;;;;10.23;4.00;;;;;;;18.96;58.84;101940.28;5011048;28;20050;-59
2022/08/09 05:00:36;;;;;;;8.50;4.07;;;;;;;18.98;58.52;101942.84;5013227;28;20046;-57
2022/08/09 05:03:04;;;;;;;10.48;4.65;;;;;;;19.01;58.75;101944.44;5013087;28;20053;-58
2022/08/09 05:05:51;;;;;;;10.18;4.60;;;;;;;19.04;58.36;101950.38;5008294;28;20061;-58
2022/08/09 05:08:34;;;;;;;7.97;4.25;;;;;;;19.08;58.63;101943.84;4998148;28;20050;-59
2022/08/09 05:11:02;;;;;;;10.13;4.40;;;;;;;19.14;58.45;101951.44;5012933;28;20058;-57
2022/08/09 05:13:34;;;;;;;9.65;3.90;;;;;;;19.19;58.31;101954.59;5015114;28;20045;-61
2022/08/09 05:16:08;;;;;;;10.15;4.38;;;;;;;19.25;57.94;101950.63;5011962;28;20518;-62
2022/08/09 05:18:37;;;;;;;9.00;3.92;;;;;;;19.29;58.10;101957.44;5016904;28;20065;-59
2022/08/09 05:21:24;;;;;;;9.73;4.55;;;;;;;19.30;57.75;101960.97;5017249;28;20490;-59
2022/08/09 05:23:58;;;;;;;8.35;3.92;;;;;;;19.35;57.42;101956.97;5011210;28;20498;-55
2022/08/09 05:26:29;;;;;;;12.20;4.03;;;;;;;19.41;57.70;101963.69;5018492;28;20077;-61
2022/08/09 05:29:18;;;;;;;7.38;3.70;;;;;;;19.49;57.35;101962.13;5001079;28;20053;-60
2022/08/09 05:31:51;;;;;;;20.92;4.18;;;;;;;19.56;57.30;101962.53;5009936;28;20129;-58
2022/08/09 05:34:30;;;;;;;7.32;3.45;;;;;;;19.58;57.22;101965.06;5014242;28;20077;-57
2022/08/09 05:37:03;;;;;;;7.35;4.07;;;;;;;19.62;56.97;101963.91;5015404;28;20528;-58
2022/08/09 05:39:37;;;;;;;10.05;4.13;;;;;;;19.66;57.02;101970.72;5006639;28;20054;-58
2022/08/09 05:42:12;;;;;;;4.30;3.40;;;;;;;19.77;56.68;101969.91;5016268;28;20046;-58
2022/08/09 05:44:51;;;;;;;6.57;3.72;;;;;;;19.86;56.48;101971.91;5014798;28;20209;-58
2022/08/09 05:47:20;;;;;;;6.38;3.70;;;;;;;19.91;56.23;101973.22;5019706;28;20414;-58
2022/08/09 05:49:50;;;;;;;6.05;3.50;;;;;;;20.00;55.98;101974.34;5009465;28;20053;-58
2022/08/09 05:52:37;;;;;;;8.13;3.58;;;;;;;20.07;55.68;101972.88;5009864;28;20070;-59
2022/08/09 05:55:06;;;;;;;7.13;4.20;;;;;;;20.14;55.67;101976.78;5015611;28;20068;-60
2022/08/09 05:57:38;;;;;;;10.80;3.72;;;;;;;20.17;55.68;101973.91;5013639;28;20061;-59
2022/08/09 06:00:27;;;;;;;12.20;4.25;;;;;;;20.21;55.46;101975.31;5017001;28;20068;-60
2022/08/09 06:03:01;;;;;;;9.15;3.83;;;;;;;20.23;55.46;101976.06;5015906;28;20137;-59
2022/08/09 06:05:31;;;;;;;6.18;3.83;;;;;;;20.29;54.79;101976.56;5017271;28;20077;-59
2022/08/09 06:08:18;;;;;;;6.93;3.47;;;;;;;20.35;55.10;101978.75;5014226;28;20058;-59
2022/08/09 06:10:52;;;;;;;7.63;3.40;;;;;;;20.44;54.76;101980.69;5013206;28;20050;-59
2022/08/09 06:13:20;;;;;;;10.75;4.13;;;;;;;20.53;54.75;101982.66;5019474;28;20061;-58
2022/08/09 06:15:48;;;;;;;11.05;3.95;;;;;;;20.57;54.41;101976.09;5013143;28;20140;-60
2022/08/09 06:18:20;;;;;;;14.50;3.67;;;;;;;20.59;53.62;101978.69;5010547;28;20054;-61
2022/08/09 06:20:52;;;;;;;9.18;3.80;;;;;;;20.59;53.75;101987.56;5015670;28;20073;-60
2022/08/09 06:23:24;;;;;;;10.90;3.60;;;;;;;20.67;53.53;101989.63;5014712;28;20070;-59
2022/08/09 06:26:12;;;;;;;6.43;3.17;;;;;;;20.79;53.44;101985.94;5013074;28;20514;-60
2022/08/09 06:28:40;;;;;;;7.25;3.08;;;;;;;20.82;52.75;101983.03;5007894;28;20391;-57
2022/08/09 06:31:09;;;;;;;5.70;3.10;;;;;;;20.85;52.28;101992.63;5011999;28;20054;-59
2022/08/09 06:33:37;;;;;;;5.10;3.30;;;;;;;20.95;52.21;101996.28;5017054;28;20050;-60
2022/08/09 06:36:08;;;;;;;6.45;3.15;;;;;;;21.04;52.13;102000.88;5011789;28;20069;-60
2022/08/09 06:38:39;;;;;;;8.48;3.72;;;;;;;21.04;51.91;102000.88;5019315;28;20398;-60
2022/08/09 06:41:16;;;;;;;4.97;3.05;;;;;;;21.14;51.74;102007.19;5004478;28;20104;-58
2022/08/09 06:43:46;;;;;;;8.85;3.42;;;;;;;21.24;51.43;102002.75;5014083;28;20053;-58
2022/08/09 06:46:14;;;;;;;5.20;3.10;;;;;;;21.29;51.16;101999.69;5015321;28;20073;-58
2022/08/09 06:49:01;;;;;;;8.73;3.20;;;;;;;21.41;50.67;102009.44;5007552;28;20054;-58
2022/08/09 06:51:28;;;;;;;8.63;4.10;;;;;;;21.55;50.49;102013.66;5009563;28;20046;-59
2022/08/09 06:53:56;;;;;;;5.57;3.20;;;;;;;21.62;50.50;102006.81;5010925;28;20123;-59
2022/08/09 06:56:27;;;;;;;6.97;4.35;;;;;;;21.67;50.07;102009.94;5013064;28;20430;-58
2022/08/09 06:58:57;;;;;;;5.00;3.72;;;;;;;21.81;49.71;102010.63;5007032;28;20056;-59
2022/08/09 07:01:47;;;;;;;7.53;3.00;;;;;;;21.94;49.09;102006.75;5012895;28;20064;-59
2022/08/09 07:04:24;;;;;;;6.43;3.45;;;;;;;21.99;48.70;102011.75;5015426;28;20053;-59
2022/08/09 07:06:53;;;;;;;9.02;3.03;;;;;;;22.13;48.97;102011.44;5010255;28;20289;-57
2022/08/09 07:09:27;;;;;;;5.80;3.00;;;;;;;22.19;48.14;102016.25;5017325;28;20502;-58
2022/08/09 07:12:15;;;;;;;8.60;3.10;;;;;;;22.24;47.88;102026.59;5004126;28;20054;-60
2022/08/09 07:14:45;;;;;;;10.20;3.03;;;;;;;22.34;47.16;102019.47;5018255;28;20081;-59
2022/08/09 07:17:19;;;;;;;7.38;2.60;;;;;;;22.46;46.72;102023.75;5001659;28;20545;-59
2022/08/09 07:19:49;;;;;;;5.03;2.40;;;;;;;22.49;46.71;102026.16;5008631;28;20062;-58
2022/08/09 07:22:22;;;;;;;4.03;2.70;;;;;;;22.55;46.21;102027.47;5013263;28;20058;-59
2022/08/09 07:25:02;;;;;;;4.18;2.92;;;;;;;22.72;45.84;102034.03;5010601;28;20058;-57
2022/08/09 07:27:31;;;;;;;5.53;3.10;;;;;;;22.76;45.53;102027.41;4979388;28;20042;-60
2022/08/09 07:30:01;;;;;;;5.88;3.10;;;;;;;22.79;45.15;102034.34;5009719;28;20062;-59
2022/08/09 07:32:29;;;;;;;4.72;2.55;;;;;;;22.98;44.64;102029.06;5009043;28;20415;-59
2022/08/09 07:35:02;;;;;;;8.27;2.97;;;;;;;23.18;44.10;102035.34;5008888;28;20177;-58
2022/08/09 07:37:39;;;;;;;4.53;2.28;;;;;;;23.23;43.63;102033.06;5005691;28;20148;-59
2022/08/09 07:40:16;;;;;;;9.27;2.53;;;;;;;23.33;43.60;102028.59;5004092;28;20060;-60
2022/08/09 07:42:59;;;;;;;10.25;2.88;;;;;;;23.45;43.24;102034.66;5011318;28;20045;-59
2022/08/09 07:45:28;;;;;;;6.40;2.90;;;;;;;23.42;42.50;102027.75;5015371;28;20061;-59
2022/08/09 07:48:08;;;;;;;5.60;2.22;;;;;;;23.43;42.48;102031.28;5006593;28;20058;-60
2022/08/09 07:50:57;;;;;;;3.72;2.75;;;;;;;23.38;42.44;102031.69;5009815;28;20050;-60
2022/08/09 07:53:44;;;;;;;6.20;2.92;;;;;;;23.44;41.94;102033.81;5002058;28;20049;-57
2022/08/09 07:56:32;;;;;;;5.75;2.47;;;;;;;23.41;41.76;102036.78;5005646;28;20570;-60
2022/08/09 07:59:00;;;;;;;6.65;2.50;;;;;;;23.56;42.02;102031.84;5008997;28;20053;-60
2022/08/09 08:01:27;;;;;;;4.63;2.50;;;;;;;23.74;41.57;102035.56;5007364;28;20061;-59
2022/08/09 08:04:01;;;;;;;8.73;2.85;;;;;;;23.88;41.36;102033.44;5008347;28;20054;-59
2022/08/09 08:06:30;;;;;;;4.60;2.53;;;;;;;23.96;41.23;102037.13;5003745;28;20045;-59
2022/08/09 08:08:59;;;;;;;4.05;2.15;;;;;;;24.04;40.66;102046.28;5008276;28;20061;-60
2022/08/09 08:11:31;;;;;;;9.02;2.90;;;;;;;24.21;40.46;102034.78;4987825;28;20045;-59
2022/08/09 08:14:18;;;;;;;3.67;2.58;;;;;;;24.32;39.79;102033.78;4990211;28;20130;-59
2022/08/09 08:16:50;;;;;;;4.05;2.47;;;;;;;24.39;39.95;102035.75;5006266;28;20072;-58
2022/08/09 08:19:34;;;;;;;4.13;2.20;;;;;;;24.58;39.40;102037.53;5008127;28;20058;-61
2022/08/09 08:22:02;;;;;;;6.13;2.30;;;;;;;24.70;39.41;102030.97;5003970;28;20535;-58
2022/08/09 08:24:30;;;;;;;4.38;2.30;;;;;;;24.84;39.14;102036.88;5008564;28;20481;-59
2022/08/09 08:27:07;;;;;;;4.38;2.22;;;;;;;24.91;38.58;102038.81;5007132;28;20080;-60
2022/08/09 08:29:44;;;;;;;3.90;2.65;;;;;;;24.94;38.72;102033.09;5000152;28;20145;-61
2022/08/09 08:32:19;;;;;;;3.38;2.58;;;;;;;24.97;38.11;102040.91;5004731;28;20406;-60
2022/08/09 08:34:56;;;;;;;9.73;2.83;;;;;;;25.12;38.16;102035.88;5006680;28;20573;-60
2022/08/09 08:37:28;;;;;;;7.47;2.40;;;;;;;25.16;38.27;102036.44;5009006;28;20065;-60
2022/08/09 08:40:16;;;;;;;5.68;2.10;;;;;;;25.20;38.11;102030.59;4992277;28;20046;-57
2022/08/09 08:42:45;;;;;;;5.65;2.58;;;;;;;25.29;38.10;102030.69;5005061;28;20054;-58
2022/08/09 08:45:13;;;;;;;4.13;2.55;;;;;;;25.39;37.78;102040.38;5007210;28;20113;-59
2022/08/09 08:47:43;;;;;;;9.35;2.28;;;;;;;25.44;37.35;102035.41;5007923;28;20050;-57
2022/08/09 08:50:14;;;;;;;6.25;2.55;;;;;;;25.46;37.28;102038.78;4998804;28;20042;-56
2022/08/09 08:52:44;;;;;;;2.72;2.05;;;;;;;25.55;37.07;102038.84;5011085;28;20525;-59
2022/08/09 08:55:26;;;;;;;2.58;2.22;;;;;;;25.66;37.11;102044.00;5004157;28;20057;-57
2022/08/09 08:57:57;;;;;;;4.47;2.20;;;;;;;25.76;36.46;102042.13;5010439;28;20056;-59
2022/08/09 09:00:26;;;;;;;5.53;2.05;;;;;;;25.78;36.83;102040.09;4993909;28;20503;-61
2022/08/09 09:03:03;;;;;;;5.70;2.45;;;;;;;25.86;36.37;102036.63;5011769;28;20521;-60
2022/08/09 09:05:44;;;;;;;7.13;2.20;;;;;;;26.00;36.00;102044.16;5006917;28;20058;-60
2022/08/09 09:08:33;;;;;;;6.40;1.98;;;;;;;25.99;35.59;102040.63;5012463;28;20545;-59
2022/08/09 09:11:06;;;;;;;7.28;2.70;;;;;;;25.98;34.80;102035.38;5010429;28;20068;-57
2022/08/09 09:13:38;;;;;;;4.15;2.47;;;;;;;26.05;34.87;102046.41;5011106;28;20085;-60
2022/08/09 09:16:22;;;;;;;4.32;1.60;;;;;;;26.02;34.88;102037.59;5010242;28;20068;-60
2022/08/09 09:18:59;;;;;;;2.70;1.90;;;;;;;26.09;34.61;102050.47;5011591;28;20078;-59
2022/08/09 09:22:06;;;;;;;5.43;2.30;;;;;;;26.20;34.63;102048.34;5008624;28;20400;-56
2022/08/09 09:24:50;;;;;;;3.53;2.17;;;;;;;26.31;34.42;102044.56;5011710;28;20050;-61
2022/08/09 09:27:25;;;;;;;7.70;2.53;;;;;;;26.27;33.99;102045.88;5011938;28;20069;-63
2022/08/09 09:30:12;;;;;;;3.22;1.80;;;;;;;26.45;33.69;102043.16;5017276;23;20083;-59
2022/08/09 09:33:03;;;;;;;6.30;2.28;;;;;;;26.56;33.17;102044.72;5003705;28;20675;-61
2022/08/09 09:35:52;;;;;;;6.32;2.22;;;;;;;26.58;32.42;102046.25;5017885;28;20080;-59
2022/08/09 09:38:43;;;;;;;5.72;1.73;;;;;;;26.53;32.04;102042.34;5015381;28;20065;-57
2022/08/09 09:41:32;;;;;;;5.03;2.00;;;;;;;26.55;32.44;102043.03;5005135;28;20563;-59
2022/08/09 09:44:31;;;;;;;3.97;1.63;;;;;;;26.63;32.64;102037.69;5008254;28;20050;-57
2022/08/09 09:47:12;;;;;;;4.25;1.92;;;;;;;26.76;32.30;102032.69;5017711;28;20518;-54
2022/08/09 09:49:48;;;;;;;4.35;1.90;;;;;;;26.85;32.51;102038.97;5009343;28;20306;-56
2022/08/09 09:52:48;;;;;;;4.47;1.98;;;;;;;26.94;32.26;102036.13;5007321;28;20057;-59
2022/08/09 09:55:20;;;;;;;7.65;2.05;;;;;;;26.96;31.72;102033.25;5013077;28;20379;-58
2022/08/09 09:58:02;;;;;;;3.92;2.15;;;;;;;26.97;31.52;102026.81;5020495;28;20421;-56
2022/08/09 10:00:51;;;;;;;4.85;2.08;;;;;;;26.89;32.35;102034.94;5016194;28;20062;-53
2022/08/09 10:03:42;;;;;;;6.50;1.95;;;;;;;26.94;31.66;102033.41;5004510;28;20076;-56
2022/08/09 10:06:11;;;;;;;2.58;2.00;;;;;;;27.12;32.00;102029.78;5017092;28;20222;-60
2022/08/09 10:08:40;;;;;;;5.03;2.45;;;;;;;27.26;32.32;102032.69;5016080;28;20057;-59
2022/08/09 10:11:25;;;;;;;4.43;2.08;;;;;;;27.36;31.79;102019.00;5006167;28;20533;-59
2022/08/09 10:14:26;;;;;;;6.60;2.60;;;;;;;27.42;30.75;102021.06;5019965;28;20173;-52
2022/08/09 10:17:18;;;;;;;4.28;2.70;;;;;;;27.25;30.82;102024.75;5015251;28;20053;-60
2022/08/09 10:20:21;;;;;;;4.53;2.33;;;;;;;27.43;31.04;102020.06;5011546;28;20062;-60
2022/08/09 10:23:12;;;;;;;6.70;1.88;;;;;;;27.58;31.41;102020.22;5018421;28;20061;-56
2022/08/09 10:25:45;;;;;;;2.47;1.83;;;;;;;27.79;31.28;102008.94;5015271;28;20050;-59
2022/08/09 10:28:33;;;;;;;7.05;2.13;;;;;;;27.83;30.67;102015.69;5008603;28;20050;-60
2022/08/09 10:31:01;;;;;;;8.18;2.17;;;;;;;27.90;30.74;102005.03;5020314;28;20076;-59
2022/08/09 10:33:48;;;;;;;4.57;2.30;;;;;;;28.01;30.49;102002.81;5015065;28;20108;-59
2022/08/09 10:36:36;;;;;;;5.07;2.75;;;;;;;28.04;30.46;102001.63;5014015;28;20060;-58
2022/08/09 10:39:03;;;;;;;3.75;2.15;;;;;;;28.10;30.65;102006.38;5013291;28;20063;-59
2022/08/09 10:41:42;;;;;;;7.85;1.98;;;;;;;28.24;30.51;102000.25;5016212;28;20133;-60
2022/08/09 10:44:09;;;;;;;7.25;2.38;;;;;;;28.49;30.20;102003.72;5017389;28;20529;-60
2022/08/09 10:47:23;;;;;;;3.28;2.05;;;;;;;28.62;29.82;102002.34;5012848;28;20046;-59
2022/08/09 10:50:12;;;;;;;4.47;2.15;;;;;;;28.67;29.68;101998.06;5014231;28;20053;-60
2022/08/09 10:52:51;;;;;;;5.70;3.05;;;;;;;28.72;29.32;102005.66;5008908;28;20081;-59
2022/08/09 10:55:26;;;;;;;4.93;2.25;;;;;;;28.95;29.42;101998.47;5011236;28;20472;-60
2022/08/09 10:57:55;;;;;;;4.60;2.63;;;;;;;28.96;28.90;101989.34;5016501;28;20466;-60
2022/08/09 11:00:42;;;;;;;3.72;1.90;;;;;;;28.83;28.90;101999.88;5003940;28;20080;-60
2022/08/09 11:03:29;;;;;;;3.92;2.20;;;;;;;28.95;29.05;101986.75;5003031;28;20061;-60
2022/08/09 11:06:20;;;;;;;4.03;2.47;;;;;;;29.19;28.50;101992.06;5012862;28;20171;-58
2022/08/09 11:08:50;;;;;;;4.65;2.15;;;;;;;29.48;28.62;101990.50;5013910;28;20050;-60
2022/08/09 11:11:21;;;;;;;4.28;2.10;;;;;;;29.81;28.18;101992.94;5016134;28;20398;-60
2022/08/09 11:14:26;;;;;;;6.82;1.92;;;;;;;30.05;27.95;101989.16;5012796;28;20430;-60
2022/08/09 11:16:55;;;;;;;3.45;2.08;;;;;;;30.30;27.61;101989.75;5013619;28;20354;-60
2022/08/09 11:19:53;;;;;;;4.75;2.30;;;;;;;30.57;27.36;101985.53;5016967;28;20050;-59
2022/08/09 11:22:43;;;;;;;6.32;2.55;;;;;;;30.75;25.87;101989.53;5013370;28;20050;-57
2022/08/09 11:25:10;;;;;;;3.72;2.85;;;;;;;30.94;26.01;101987.28;5010381;28;20474;-58
2022/08/09 11:27:40;;;;;;;6.65;3.13;;;;;;;31.00;26.40;101987.34;5014389;28;20052;-58
2022/08/09 11:30:28;;;;;;;8.82;2.95;;;;;;;31.09;25.83;101988.06;5009810;28;20060;-59
2022/08/09 11:33:29;;;;;;;4.85;2.22;;;;;;;30.84;25.97;101981.28;5003678;28;20056;-57
2022/08/09 11:35:58;;;;;;;11.13;2.60;;;;;;;30.54;26.33;101991.34;5013628;28;20050;-61
2022/08/09 11:38:27;;;;;;;3.10;2.50;;;;;;;29.98;26.14;101981.75;5007325;28;20058;-58
2022/08/09 11:41:09;;;;;;;2.83;2.22;;;;;;;29.90;26.10;101987.28;5007596;28;20143;-60
2022/08/09 11:43:39;;;;;;;6.82;2.00;;;;;;;29.83;26.36;101990.91;5017442;28;20374;-60
2022/08/09 11:46:07;;;;;;;5.47;2.08;;;;;;;29.40;26.49;101988.69;5009284;28;20141;-60
2022/08/09 11:48:54;;;;;;;4.95;1.98;;;;;;;28.76;27.61;101988.03;5014438;28;20391;-59
2022/08/09 11:51:24;;;;;;;5.50;1.98;;;;;;;28.70;27.87;101986.88;5005545;28;20462;-57
2022/08/09 11:54:16;;;;;;;5.65;2.17;;;;;;;28.65;27.78;101986.56;5010097;28;20061;-57
2022/08/09 11:57:33;;;;;;;3.80;2.03;;;;;;;28.99;27.56;101982.69;5019011;28;20061;-58
2022/08/09 12:00:21;;;;;;;6.70;3.90;;;;;;;29.45;27.13;101988.13;5004907;28;20082;-60
2022/08/09 12:02:55;;;;;;;5.35;3.08;;;;;;;29.96;27.69;101983.81;5011292;28;20465;-59
2022/08/09 12:05:34;;;;;;;8.25;2.15;;;;;;;30.53;27.50;101979.63;5013133;28;20057;-60
2022/08/09 12:08:08;;;;;;;6.75;2.72;;;;;;;31.02;27.06;101978.97;5007624;28;20057;-59
2022/08/09 12:10:43;;;;;;;6.20;2.15;;;;;;;31.49;26.42;101981.16;4997009;28;20058;-58